Time;durP1;ratioP1;P1;durP2;ratioP2;P2;SDS_P1;SDS_P2;PMS_P1;PMS_P2;Temp;Humidity;BMP_temperature;BMP_pressure;BME280_temperature;BME280_humidity;BME280_pressure;Samples;Min_cycle;Max_cycle;Signal;HPM_P1;HPM_P2
2022/12/13 00:00:09;;;;;;;57.97;28.65;;;0.90;99.90;;;;;;5010037;28;20048;-86
2022/12/13 00:02:41;;;;;;;59.10;28.00;;;1.00;99.90;;;;;;5019617;28;20459;-86
2022/12/13 00:05:09;;;;;;;52.95;27.38;;;1.00;99.90;;;;;;5019105;28;20489;-85
2022/12/13 00:07:36;;;;;;;55.95;26.25;;;1.00;99.90;;;;;;5019136;28;20049;-86
2022/12/13 00:10:03;;;;;;;52.78;26.63;;;1.00;99.90;;;;;;5015295;28;20108;-86
2022/12/13 00:12:30;;;;;;;58.40;28.63;;;0.90;99.90;;;;;;5023028;28;20060;-86
2022/12/13 00:14:57;;;;;;;56.90;27.75;;;0.90;99.90;;;;;;5016599;28;20121;-86
2022/12/13 00:17:24;;;;;;;54.78;26.98;;;0.90;99.90;;;;;;5018579;28;20042;-85
2022/12/13 00:19:52;;;;;;;50.33;25.67;;;0.90;99.90;;;;;;5023481;28;20054;-86
2022/12/13 00:22:19;;;;;;;53.35;26.38;;;0.90;99.90;;;;;;5025125;28;20063;-86
2022/12/13 00:24:46;;;;;;;55.45;27.75;;;0.90;99.90;;;;;;5021417;28;20037;-86
2022/12/13 00:27:13;;;;;;;55.40;27.70;;;0.90;99.90;;;;;;5025066;28;20400;-86
2022/12/13 00:29:40;;;;;;;56.90;29.15;;;0.80;99.90;;;;;;5024117;28;20038;-86
2022/12/13 00:32:07;;;;;;;51.53;26.70;;;0.80;99.90;;;;;;5023852;28;20050;-86
2022/12/13 00:34:34;;;;;;;54.55;26.95;;;0.80;99.90;;;;;;5023076;28;20048;-85
2022/12/13 00:37:02;;;;;;;54.90;27.33;;;0.80;99.90;;;;;;5012316;28;20403;-86
2022/12/13 00:39:29;;;;;;;54.97;27.88;;;0.80;99.90;;;;;;5019432;28;20068;-85
2022/12/13 00:41:56;;;;;;;53.28;26.63;;;0.80;99.90;;;;;;5028018;28;20041;-86
2022/12/13 00:44:23;;;;;;;51.60;26.13;;;0.70;99.90;;;;;;5022573;28;20121;-86
2022/12/13 00:46:50;;;;;;;53.13;25.45;;;0.80;99.90;;;;;;5019603;28;20096;-86
2022/12/13 00:49:18;;;;;;;52.00;25.50;;;0.70;99.90;;;;;;5024176;28;20046;-86
2022/12/13 00:51:47;;;;;;;48.40;24.23;;;0.80;99.90;;;;;;5013624;28;20045;-86
2022/12/13 00:54:16;;;;;;;49.80;25.45;;;0.70;99.90;;;;;;5015357;28;20030;-86
2022/12/13 00:56:43;;;;;;;51.15;24.58;;;0.70;99.90;;;;;;5020601;28;20046;-86
2022/12/13 00:59:13;;;;;;;46.85;24.38;;;0.70;99.90;;;;;;5018536;28;20041;-86
2022/12/13 01:01:40;;;;;;;44.92;22.33;;;0.70;99.90;;;;;;5029934;28;20812;-86
2022/12/13 01:04:07;;;;;;;50.78;24.50;;;0.70;99.90;;;;;;5026728;28;20601;-86
2022/12/13 01:06:37;;;;;;;50.35;23.35;;;0.70;99.90;;;;;;5021685;28;20489;-86
2022/12/13 01:09:06;;;;;;;46.58;24.10;;;0.60;99.90;;;;;;5026855;28;20117;-86
2022/12/13 01:11:34;;;;;;;48.85;22.95;;;0.60;99.90;;;;;;5011528;28;20042;-86
2022/12/13 01:14:01;;;;;;;46.47;22.40;;;0.60;99.90;;;;;;5022840;28;20046;-86
2022/12/13 01:16:28;;;;;;;46.72;23.17;;;0.60;99.90;;;;;;5018394;28;20041;-86
2022/12/13 01:18:57;;;;;;;47.42;22.58;;;0.60;99.90;;;;;;5021543;28;20091;-86
2022/12/13 01:21:23;;;;;;;47.90;23.45;;;0.60;99.90;;;;;;5027851;28;20386;-86
2022/12/13 01:23:51;;;;;;;45.67;22.83;;;0.60;99.90;;;;;;5026631;28;20057;-86
2022/12/13 01:26:19;;;;;;;45.33;22.58;;;0.60;99.90;;;;;;5021657;28;20051;-86
2022/12/13 01:28:48;;;;;;;46.20;22.40;;;0.60;99.90;;;;;;5019509;28;20053;-86
2022/12/13 01:31:18;;;;;;;42.35;21.55;;;0.60;99.90;;;;;;5025940;28;20680;-86
2022/12/13 01:33:44;;;;;;;41.63;20.92;;;0.60;99.90;;;;;;5022111;28;20116;-86
2022/12/13 01:36:14;;;;;;;44.08;21.23;;;0.60;99.90;;;;;;5018899;28;20046;-86
2022/12/13 01:38:41;;;;;;;39.08;20.10;;;0.60;99.90;;;;;;5016897;28;20416;-86
2022/12/13 01:41:09;;;;;;;41.95;21.38;;;0.60;99.90;;;;;;5016663;28;20068;-86
2022/12/13 01:43:59;;;;;;;42.50;19.90;;;0.50;99.90;;;;;;5026419;28;20124;-87
2022/12/13 01:46:27;;;;;;;41.83;20.58;;;0.50;99.90;;;;;;5015753;28;20096;-86
2022/12/13 01:48:58;;;;;;;44.90;20.55;;;0.50;99.90;;;;;;5014564;28;20048;-86
2022/12/13 01:51:29;;;;;;;44.95;21.23;;;0.50;99.90;;;;;;5015347;28;20041;-86
2022/12/13 01:53:58;;;;;;;43.55;21.58;;;0.50;99.90;;;;;;5013183;28;20144;-86
2022/12/13 01:56:29;;;;;;;43.95;20.40;;;0.50;99.90;;;;;;5011222;28;20042;-86
2022/12/13 01:58:58;;;;;;;40.53;20.15;;;0.50;99.90;;;;;;5014214;28;20535;-86
2022/12/13 02:01:25;;;;;;;41.25;20.77;;;0.50;99.90;;;;;;5020429;28;20501;-86
2022/12/13 02:03:52;;;;;;;38.85;19.38;;;0.50;99.90;;;;;;5017732;28;20099;-86
2022/12/13 02:06:23;;;;;;;41.00;20.17;;;0.40;99.90;;;;;;5015519;28;20041;-86
2022/12/13 02:08:50;;;;;;;39.08;19.48;;;0.40;99.90;;;;;;5020249;28;20042;-86
2022/12/13 02:11:17;;;;;;;39.20;19.48;;;0.40;99.90;;;;;;5017078;28;20493;-86
2022/12/13 02:13:44;;;;;;;36.78;18.55;;;0.40;99.90;;;;;;5022568;28;20041;-87
2022/12/13 02:16:15;;;;;;;37.90;18.52;;;0.40;99.90;;;;;;5012223;28;20116;-86
2022/12/13 02:18:55;;;;;;;37.53;19.00;;;0.40;99.90;;;;;;5011783;28;20124;-86
2022/12/13 02:21:27;;;;;;;39.60;18.45;;;0.50;99.90;;;;;;5018036;28;20049;-86
2022/12/13 02:24:34;;;;;;;39.17;18.92;;;0.40;99.90;;;;;;5026696;28;20056;-86
2022/12/13 02:27:13;;;;;;;36.90;17.55;;;0.40;99.90;;;;;;5017207;28;20038;-85
2022/12/13 02:30:12;;;;;;;38.65;19.40;;;0.40;99.90;;;;;;5010548;28;20125;-86
2022/12/13 02:32:42;;;;;;;35.70;18.38;;;0.40;99.90;;;;;;5019263;28;20049;-86
2022/12/13 02:35:12;;;;;;;41.80;18.40;;;0.30;99.90;;;;;;5015288;28;20069;-86
2022/12/13 02:37:48;;;;;;;38.05;18.95;;;0.30;99.90;;;;;;5011839;28;20052;-86
2022/12/13 02:40:20;;;;;;;35.75;18.30;;;0.30;99.90;;;;;;5017282;28;20042;-86
2022/12/13 02:42:53;;;;;;;36.83;17.50;;;0.30;99.90;;;;;;5025296;28;20050;-86
2022/12/13 02:45:25;;;;;;;39.85;17.95;;;0.30;99.90;;;;;;5024629;28;20033;-86
2022/12/13 02:47:55;;;;;;;34.63;17.88;;;0.30;99.90;;;;;;5010173;28;20692;-86
2022/12/13 02:50:22;;;;;;;38.45;17.38;;;0.30;99.90;;;;;;5030617;22;20417;-88
2022/12/13 02:52:49;;;;;;;38.42;18.38;;;0.30;99.90;;;;;;5005623;28;20084;-87
2022/12/13 02:55:17;;;;;;;35.17;18.23;;;0.20;99.90;;;;;;4998814;28;20038;-88
2022/12/13 02:57:47;;;;;;;40.97;18.45;;;0.20;99.90;;;;;;5007785;28;20777;-88
2022/12/13 03:00:16;;;;;;;33.85;17.20;;;0.20;99.90;;;;;;5005665;28;20134;-88
2022/12/13 03:02:56;;;;;;;39.08;17.90;;;0.20;99.90;;;;;;4997093;28;20075;-88
2022/12/13 03:08:21;;;;;;;37.25;17.45;;;0.20;99.90;;;;;;4976542;28;20041;-89
2022/12/13 03:10:56;;;;;;;38.33;18.02;;;0.20;99.90;;;;;;5008861;28;20128;-89
2022/12/13 03:13:37;;;;;;;33.47;16.48;;;0.20;99.90;;;;;;4983903;28;20485;-88
2022/12/13 03:16:11;;;;;;;37.72;18.10;;;0.20;99.90;;;;;;5001076;28;20033;-89
2022/12/13 03:18:39;;;;;;;35.05;17.08;;;0.10;99.90;;;;;;4988799;28;20054;-87
2022/12/13 03:21:08;;;;;;;35.67;17.88;;;0.10;99.90;;;;;;5001288;28;20080;-87
2022/12/13 03:23:36;;;;;;;36.78;17.58;;;0.10;99.90;;;;;;4998445;28;20100;-88
2022/12/13 03:26:07;;;;;;;39.90;18.30;;;0.10;99.90;;;;;;5004131;28;20084;-88
2022/12/13 03:28:35;;;;;;;36.70;17.90;;;0.10;99.90;;;;;;5007698;28;20046;-87
2022/12/13 03:31:02;;;;;;;36.28;17.13;;;0.10;99.90;;;;;;5008669;28;20402;-87
2022/12/13 03:33:29;;;;;;;36.08;17.48;;;0.00;99.90;;;;;;4993155;28;20837;-88
2022/12/13 03:35:57;;;;;;;37.95;17.92;;;0.00;99.90;;;;;;5006481;28;20045;-88
2022/12/13 03:38:25;;;;;;;36.03;17.40;;;0.00;99.90;;;;;;5007968;28;20061;-89
2022/12/13 03:40:54;;;;;;;39.28;18.25;;;0.00;99.90;;;;;;5008875;28;20056;-88
2022/12/13 03:43:22;;;;;;;38.63;18.38;;;0.00;99.90;;;;;;5002299;28;20053;-88
2022/12/13 03:45:49;;;;;;;37.83;17.92;;;0.00;99.90;;;;;;4990300;28;20042;-88
2022/12/13 03:48:17;;;;;;;41.22;18.92;;;0.00;99.90;;;;;;5001117;28;20038;-88
2022/12/13 03:50:44;;;;;;;36.13;17.95;;;-0.10;99.90;;;;;;5008977;28;20128;-88
2022/12/13 03:53:12;;;;;;;37.30;17.48;;;-0.10;99.90;;;;;;5001198;28;20113;-89
2022/12/13 03:55:39;;;;;;;35.70;17.00;;;-0.10;99.90;;;;;;4982838;28;20046;-88
2022/12/13 03:58:06;;;;;;;36.30;17.80;;;-0.10;99.90;;;;;;4993704;28;20132;-88
2022/12/13 04:00:33;;;;;;;36.90;17.45;;;-0.10;99.90;;;;;;4998869;28;20042;-89
2022/12/13 04:03:00;;;;;;;33.10;16.50;;;-0.10;99.90;;;;;;4986117;28;20137;-87
2022/12/13 04:05:28;;;;;;;34.13;17.23;;;-0.10;99.90;;;;;;4987132;28;20442;-88
2022/12/13 04:07:55;;;;;;;36.85;16.50;;;-0.10;99.90;;;;;;5005317;28;20046;-88
2022/12/13 04:10:23;;;;;;;35.33;17.38;;;-0.10;99.90;;;;;;4988672;28;20498;-88
2022/12/13 04:15:35;;;;;;;37.05;16.85;;;-0.10;99.90;;;;;;5004029;28;20053;-89
2022/12/13 04:18:02;;;;;;;32.75;16.27;;;-0.10;99.90;;;;;;5003802;28;20038;-88
2022/12/13 04:20:29;;;;;;;36.30;17.10;;;-0.10;99.90;;;;;;5012009;28;20045;-88
2022/12/13 04:22:56;;;;;;;34.78;17.30;;;-0.20;99.90;;;;;;4992526;28;20054;-88
2022/12/13 04:25:24;;;;;;;37.17;17.23;;;-0.20;99.90;;;;;;5002298;28;20037;-89
2022/12/13 04:27:51;;;;;;;32.38;16.80;;;-0.20;99.90;;;;;;5007160;28;20073;-89
2022/12/13 04:30:18;;;;;;;35.00;16.10;;;-0.20;99.90;;;;;;5011153;28;20078;-89
2022/12/13 04:32:45;;;;;;;33.53;15.73;;;-0.20;99.90;;;;;;4985828;28;20514;-89
2022/12/13 04:35:12;;;;;;;34.03;17.10;;;-0.20;99.90;;;;;;5006142;28;20049;-88
2022/12/13 04:37:39;;;;;;;35.95;16.23;;;-0.20;99.90;;;;;;5002101;28;20084;-89
2022/12/13 04:40:07;;;;;;;37.28;16.85;;;-0.20;99.90;;;;;;4993556;28;20042;-89
2022/12/13 04:42:35;;;;;;;32.03;16.50;;;-0.20;99.90;;;;;;5010064;28;20054;-89
2022/12/13 04:45:03;;;;;;;31.92;16.20;;;-0.20;99.90;;;;;;5009090;28;20042;-87
2022/12/13 04:47:30;;;;;;;33.55;16.70;;;-0.20;99.90;;;;;;5011288;28;20140;-85
2022/12/13 04:49:57;;;;;;;34.42;17.15;;;-0.30;99.90;;;;;;4998536;28;20057;-88
2022/12/13 04:52:24;;;;;;;31.42;16.20;;;-0.30;99.90;;;;;;4983679;28;20133;-87
2022/12/13 04:54:52;;;;;;;36.67;16.63;;;-0.30;99.90;;;;;;4998555;28;20054;-90
2022/12/13 04:57:18;;;;;;;37.88;17.52;;;-0.30;99.90;;;;;;4992152;28;20465;-89
2022/12/13 04:59:47;;;;;;;34.83;16.33;;;-0.30;99.90;;;;;;4986807;28;20053;-86
2022/12/13 05:02:14;;;;;;;34.47;16.73;;;-0.30;99.90;;;;;;4989184;28;20470;-87
2022/12/13 05:04:41;;;;;;;35.20;17.52;;;-0.40;99.90;;;;;;5004575;28;20068;-90
2022/12/13 05:07:08;;;;;;;34.78;17.10;;;-0.40;99.90;;;;;;4986348;28;20038;-90
2022/12/13 05:09:35;;;;;;;35.53;16.30;;;-0.40;99.90;;;;;;4993509;28;20045;-92
2022/12/13 05:12:02;;;;;;;32.67;16.98;;;-0.40;99.90;;;;;;4997890;28;20049;-91
2022/12/13 05:14:30;;;;;;;34.83;16.63;;;-0.40;99.90;;;;;;5009920;28;20573;-90
2022/12/13 05:16:58;;;;;;;30.83;15.73;;;-0.40;99.90;;;;;;4983968;28;20034;-91
2022/12/13 05:19:26;;;;;;;35.25;17.38;;;-0.40;99.90;;;;;;4992625;28;20052;-90
2022/12/13 05:21:53;;;;;;;34.60;16.90;;;-0.40;99.90;;;;;;5003848;28;20072;-92
2022/12/13 05:24:20;;;;;;;37.47;16.98;;;-0.40;99.90;;;;;;4982402;28;20045;-90
2022/12/13 05:26:47;;;;;;;33.75;16.55;;;-0.50;99.90;;;;;;5010914;28;20117;-90
2022/12/13 05:29:14;;;;;;;34.55;16.05;;;-0.50;99.90;;;;;;4989211;28;20053;-92
2022/12/13 05:31:41;;;;;;;34.13;16.92;;;-0.50;99.90;;;;;;4990033;28;20108;-90
2022/12/13 05:34:09;;;;;;;38.28;17.90;;;-0.50;99.90;;;;;;4987356;28;20038;-92
2022/12/13 05:36:36;;;;;;;36.50;17.70;;;-0.40;99.90;;;;;;4993307;28;20609;-89
2022/12/13 05:39:03;;;;;;;35.70;17.52;;;-0.50;99.90;;;;;;4990865;28;20041;-85
2022/12/13 05:41:33;;;;;;;37.05;17.10;;;-0.50;99.90;;;;;;5008478;28;20049;-86
2022/12/13 05:44:02;;;;;;;36.20;17.00;;;-0.50;99.90;;;;;;4995140;28;20050;-87
2022/12/13 05:46:29;;;;;;;37.60;17.05;;;-0.50;99.90;;;;;;5004259;28;20038;-86
2022/12/13 05:48:56;;;;;;;33.72;16.23;;;-0.60;99.90;;;;;;5005821;28;20112;-86
2022/12/13 05:51:27;;;;;;;33.80;15.38;;;-0.50;99.90;;;;;;5008332;28;20156;-86
2022/12/13 05:53:54;;;;;;;35.13;17.58;;;-0.50;99.90;;;;;;4984464;28;20077;-86
2022/12/13 05:56:21;;;;;;;35.95;17.75;;;-0.60;99.90;;;;;;5001181;28;20502;-85
2022/12/13 05:58:48;;;;;;;35.25;17.00;;;-0.50;99.90;;;;;;5006733;28;20116;-85
2022/12/13 06:01:15;;;;;;;34.80;16.35;;;-0.50;99.90;;;;;;5007434;28;20073;-86
2022/12/13 06:03:42;;;;;;;31.17;15.77;;;-0.60;99.90;;;;;;5011999;28;20179;-86
2022/12/13 06:06:11;;;;;;;34.33;16.90;;;-0.60;99.90;;;;;;4985076;28;20620;-86
2022/12/13 06:08:39;;;;;;;36.25;17.35;;;-0.60;99.90;;;;;;5013023;28;20049;-85
2022/12/13 06:11:07;;;;;;;38.13;17.08;;;-0.60;99.90;;;;;;5009605;28;20050;-85
2022/12/13 06:13:34;;;;;;;34.85;16.63;;;-0.60;99.90;;;;;;5005874;28;20042;-86
2022/12/13 06:16:02;;;;;;;35.45;17.00;;;-0.60;99.90;;;;;;5006230;28;20629;-86
2022/12/13 06:18:31;;;;;;;37.80;18.73;;;-0.60;99.90;;;;;;5007240;28;20092;-86
2022/12/13 06:20:59;;;;;;;34.42;16.85;;;-0.60;99.90;;;;;;5008176;28;20137;-88
2022/12/13 06:23:26;;;;;;;35.53;16.73;;;-0.60;99.90;;;;;;4980706;28;20510;-83
2022/12/13 06:25:54;;;;;;;37.10;17.55;;;-0.60;99.90;;;;;;5001204;28;20117;-85
2022/12/13 06:28:21;;;;;;;35.50;16.67;;;-0.70;99.90;;;;;;5009301;28;20114;-84
2022/12/13 06:30:51;;;;;;;35.80;17.70;;;-0.70;99.90;;;;;;5008236;28;20049;-88
2022/12/13 06:33:18;;;;;;;34.58;17.02;;;-0.60;99.90;;;;;;5007416;28;20070;-88
2022/12/13 06:35:45;;;;;;;34.03;16.73;;;-0.60;99.90;;;;;;5002314;28;20061;-85
2022/12/13 06:38:13;;;;;;;33.38;16.27;;;-0.60;99.90;;;;;;4987430;28;20046;-85
2022/12/13 06:40:40;;;;;;;39.67;18.30;;;-0.70;99.90;;;;;;5007801;28;20069;-86
2022/12/13 06:43:08;;;;;;;38.08;17.67;;;-0.70;99.90;;;;;;4994230;28;20053;-86
2022/12/13 06:45:39;;;;;;;35.97;17.73;;;-0.70;99.90;;;;;;5006822;28;20049;-84
2022/12/13 06:48:06;;;;;;;35.92;16.95;;;-0.70;99.90;;;;;;5007870;28;20442;-87
2022/12/13 06:50:34;;;;;;;33.80;17.55;;;-0.70;99.90;;;;;;4990953;28;20045;-89
2022/12/13 06:53:01;;;;;;;35.15;16.85;;;-0.70;99.90;;;;;;5005621;28;20044;-88
2022/12/13 06:55:28;;;;;;;33.53;16.15;;;-0.70;99.90;;;;;;5000114;28;20030;-88
2022/12/13 06:57:57;;;;;;;36.08;17.58;;;-0.70;99.90;;;;;;5003990;28;20120;-89
2022/12/13 07:00:25;;;;;;;37.60;17.83;;;-0.70;99.90;;;;;;5005051;28;20053;-88
2022/12/13 07:02:53;;;;;;;34.85;17.50;;;-0.80;99.90;;;;;;5003975;28;20046;-86
2022/12/13 07:05:20;;;;;;;36.88;18.08;;;-0.80;99.90;;;;;;4988978;28;20181;-88
2022/12/13 07:07:47;;;;;;;35.05;17.27;;;-0.60;99.90;;;;;;5002337;28;20045;-88
2022/12/13 07:10:14;;;;;;;34.58;16.77;;;-0.80;99.90;;;;;;4983969;28;20185;-88
2022/12/13 07:12:41;;;;;;;35.25;17.23;;;-0.80;99.90;;;;;;5002704;28;20495;-89
2022/12/13 07:15:09;;;;;;;36.92;17.10;;;-0.80;99.90;;;;;;4985967;28;20053;-85
2022/12/13 07:17:37;;;;;;;35.30;17.13;;;-0.80;99.90;;;;;;4988972;28;20049;-87
2022/12/13 07:20:08;;;;;;;40.08;17.65;;;-0.80;99.90;;;;;;4972167;28;20042;-88
2022/12/13 07:22:35;;;;;;;34.10;16.98;;;-0.80;99.90;;;;;;4980244;28;20065;-87
2022/12/13 07:25:03;;;;;;;36.53;17.10;;;-0.80;99.90;;;;;;5005988;28;20582;-88
2022/12/13 07:27:30;;;;;;;34.47;16.95;;;-0.80;99.90;;;;;;5008022;28;20042;-88
2022/12/13 07:29:57;;;;;;;36.22;16.90;;;-0.90;99.90;;;;;;5009400;28;20053;-87
2022/12/13 07:32:24;;;;;;;35.15;16.67;;;-0.90;99.90;;;;;;5005989;28;20049;-87
2022/12/13 07:34:53;;;;;;;36.55;17.55;;;-0.90;99.90;;;;;;4987747;28;20050;-90
2022/12/13 07:37:20;;;;;;;42.70;18.80;;;-0.90;99.90;;;;;;5009241;28;20053;-87
2022/12/13 07:39:47;;;;;;;39.03;18.77;;;-0.90;99.90;;;;;;5012349;28;20051;-88
2022/12/13 07:42:14;;;;;;;38.50;17.65;;;-0.90;99.90;;;;;;4995105;28;20044;-88
2022/12/13 07:44:41;;;;;;;37.72;17.55;;;-0.90;99.90;;;;;;5011882;28;20125;-89
2022/12/13 07:47:07;;;;;;;33.92;17.23;;;-0.90;99.90;;;;;;4992840;28;20387;-88
2022/12/13 07:49:34;;;;;;;39.45;19.50;;;-0.90;99.90;;;;;;4992419;28;20132;-88
2022/12/13 07:52:03;;;;;;;37.70;19.45;;;-0.90;99.90;;;;;;5011653;28;20183;-88
2022/12/13 07:54:30;;;;;;;38.47;19.95;;;-0.80;99.90;;;;;;5004387;28;20049;-87
2022/12/13 07:56:57;;;;;;;41.67;19.83;;;-0.80;99.90;;;;;;4991541;28;20192;-88
2022/12/13 07:59:24;;;;;;;38.88;19.40;;;-0.80;99.90;;;;;;5001691;28;20038;-87
2022/12/13 08:01:51;;;;;;;40.47;19.30;;;-0.80;99.90;;;;;;4992890;28;20054;-87
2022/12/13 08:04:18;;;;;;;42.83;18.75;;;-0.80;99.90;;;;;;5011598;28;20038;-88
2022/12/13 08:06:45;;;;;;;39.60;18.42;;;-0.80;99.90;;;;;;5011040;28;20044;-87
2022/12/13 08:09:14;;;;;;;35.05;18.65;;;-0.80;99.90;;;;;;5002484;28;20042;-88
2022/12/13 08:11:41;;;;;;;41.95;19.08;;;-0.80;99.90;;;;;;4993842;28;20164;-87
2022/12/13 08:14:08;;;;;;;41.53;18.10;;;-0.90;99.90;;;;;;5012061;28;20105;-88
2022/12/13 08:16:35;;;;;;;43.70;19.50;;;-0.90;99.90;;;;;;5011620;28;20042;-88
2022/12/13 08:19:02;;;;;;;33.78;17.65;;;-0.80;99.90;;;;;;5003786;28;20052;-87
2022/12/13 08:21:33;;;;;;;36.13;17.98;;;-0.80;99.90;;;;;;4994504;28;20075;-88
2022/12/13 08:24:00;;;;;;;35.83;18.63;;;-0.80;99.90;;;;;;5010830;28;20041;-88
2022/12/13 08:26:28;;;;;;;39.63;17.80;;;-0.80;99.90;;;;;;4997180;28;20176;-88
2022/12/13 08:28:55;;;;;;;38.92;18.60;;;-0.80;99.90;;;;;;5011767;28;20042;-89
2022/12/13 08:31:22;;;;;;;37.55;17.35;;;-0.80;99.90;;;;;;5009684;28;20069;-86
2022/12/13 08:33:49;;;;;;;34.40;17.48;;;-0.80;99.90;;;;;;4992251;28;20096;-86
2022/12/13 08:36:17;;;;;;;37.22;18.20;;;-0.70;99.90;;;;;;5011671;28;20152;-85
2022/12/13 08:38:44;;;;;;;39.53;17.98;;;-0.70;99.90;;;;;;4994338;28;20056;-86
2022/12/13 08:41:12;;;;;;;38.33;18.20;;;-0.70;99.90;;;;;;5008998;28;20481;-86
2022/12/13 08:43:40;;;;;;;37.85;17.88;;;-0.70;99.90;;;;;;5010382;28;20129;-86
2022/12/13 08:46:07;;;;;;;41.50;19.63;;;-0.70;99.90;;;;;;5004138;28;20081;-85
2022/12/13 08:48:34;;;;;;;38.67;18.70;;;-0.60;99.90;;;;;;4993409;28;20133;-86
2022/12/13 08:51:02;;;;;;;39.20;19.40;;;-0.50;99.90;;;;;;5011189;28;20129;-86
2022/12/13 08:53:29;;;;;;;43.92;19.98;;;-0.60;99.90;;;;;;5010684;28;20121;-87
2022/12/13 08:56:01;;;;;;;40.95;19.55;;;-0.50;99.90;;;;;;4990153;28;20495;-86
2022/12/13 08:58:28;;;;;;;38.58;18.88;;;-0.50;99.90;;;;;;5001893;28;20860;-86
2022/12/13 09:00:56;;;;;;;43.10;21.08;;;-0.50;99.90;;;;;;5010607;28;20046;-87
2022/12/13 09:03:23;;;;;;;45.33;21.77;;;-0.50;99.90;;;;;;5011639;28;20078;-87
2022/12/13 09:05:51;;;;;;;52.60;24.77;;;-0.40;99.90;;;;;;5011588;28;20065;-87
2022/12/13 09:08:18;;;;;;;52.60;25.33;;;-0.40;99.90;;;;;;4993254;28;20079;-86
2022/12/13 09:10:45;;;;;;;52.95;26.98;;;-0.30;99.90;;;;;;5011174;28;20054;-86
2022/12/13 09:13:12;;;;;;;50.58;25.30;;;-0.30;99.90;;;;;;5008657;28;20053;-86
2022/12/13 09:15:40;;;;;;;54.20;25.67;;;-0.30;99.90;;;;;;5005220;28;20045;-87
2022/12/13 09:18:08;;;;;;;48.88;23.90;;;-0.20;99.90;;;;;;5010708;28;20045;-87
2022/12/13 09:20:36;;;;;;;50.88;25.55;;;-0.20;99.90;;;;;;5011746;28;20065;-92
2022/12/13 09:23:04;;;;;;;51.75;24.42;;;-0.10;99.90;;;;;;4992810;28;20117;-92
2022/12/13 09:25:32;;;;;;;52.17;24.95;;;-0.10;99.90;;;;;;4991291;28;20054;-92
2022/12/13 09:28:00;;;;;;;48.13;23.48;;;-0.10;99.90;;;;;;5007669;28;20034;-91
2022/12/13 09:30:27;;;;;;;53.45;24.83;;;0.00;99.90;;;;;;4993004;28;20045;-89
2022/12/13 09:32:56;;;;;;;54.40;24.23;;;0.00;99.90;;;;;;4982862;28;20156;-92
2022/12/13 09:35:24;;;;;;;46.33;23.30;;;0.00;99.90;;;;;;4976497;28;20054;-90
2022/12/13 09:37:51;;;;;;;47.38;24.10;;;0.00;99.90;;;;;;4991790;28;20156;-91
2022/12/13 09:40:21;;;;;;;45.78;21.85;;;0.10;99.90;;;;;;4993603;28;20128;-91
2022/12/13 09:42:50;;;;;;;49.03;22.05;;;0.20;99.90;;;;;;4989812;28;20045;-90
2022/12/13 09:45:18;;;;;;;43.53;21.33;;;0.20;99.90;;;;;;5011057;28;20033;-92
2022/12/13 09:47:47;;;;;;;43.28;23.50;;;0.20;99.90;;;;;;5000156;28;20046;-86
2022/12/13 09:50:15;;;;;;;46.05;22.35;;;0.20;99.90;;;;;;4983570;28;20057;-86
2022/12/13 09:52:44;;;;;;;45.15;22.67;;;0.30;99.90;;;;;;5002757;28;20183;-86
2022/12/13 09:55:22;;;;;;;45.47;22.35;;;0.30;99.90;;;;;;5004502;28;20092;-87
2022/12/13 09:57:51;;;;;;;45.92;22.00;;;0.30;99.90;;;;;;5008175;28;20048;-87
2022/12/13 10:00:20;;;;;;;43.90;21.48;;;0.40;99.90;;;;;;5009783;28;20124;-87
2022/12/13 10:02:49;;;;;;;49.00;22.88;;;0.40;99.90;;;;;;5009860;28;20057;-87
2022/12/13 10:05:23;;;;;;;45.92;22.70;;;0.50;99.90;;;;;;4992238;28;20042;-88
2022/12/13 10:07:54;;;;;;;44.78;22.45;;;0.50;99.90;;;;;;5008226;28;20037;-87
2022/12/13 10:10:22;;;;;;;45.60;22.17;;;0.50;99.90;;;;;;5003511;28;20153;-87
2022/12/13 10:12:54;;;;;;;41.42;22.27;;;0.50;99.90;;;;;;4993298;28;20045;-87
2022/12/13 10:15:22;;;;;;;53.20;21.98;;;0.60;99.90;;;;;;5007840;28;20072;-88
2022/12/13 10:17:49;;;;;;;46.97;22.73;;;0.60;99.90;;;;;;5009514;28;20088;-87
2022/12/13 10:20:19;;;;;;;45.80;21.95;;;0.70;99.90;;;;;;5009617;28;20088;-87
2022/12/13 10:22:46;;;;;;;44.58;21.20;;;0.80;99.90;;;;;;5008262;28;20049;-87
2022/12/13 10:25:15;;;;;;;43.72;20.80;;;0.80;99.90;;;;;;5009925;28;20042;-87
2022/12/13 10:27:44;;;;;;;42.97;21.70;;;0.90;99.90;;;;;;4994583;28;20061;-87
2022/12/13 10:30:12;;;;;;;45.50;21.75;;;0.90;99.90;;;;;;5010233;28;20085;-87
2022/12/13 10:32:46;;;;;;;44.78;24.10;;;0.90;99.90;;;;;;5009206;28;20073;-87
2022/12/13 10:35:24;;;;;;;50.10;25.58;;;0.90;99.90;;;;;;4999519;28;20076;-87
2022/12/13 10:37:51;;;;;;;47.85;25.70;;;0.90;99.90;;;;;;5007766;28;20041;-87
2022/12/13 10:40:32;;;;;;;55.10;26.63;;;0.90;99.90;;;;;;5008003;28;20072;-88
2022/12/13 10:43:12;;;;;;;54.28;25.60;;;1.00;99.90;;;;;;5006970;28;20085;-88
2022/12/13 10:45:39;;;;;;;45.97;23.15;;;1.10;99.90;;;;;;5008571;28;20410;-88
2022/12/13 10:48:10;;;;;;;47.85;23.80;;;1.10;99.90;;;;;;4995401;28;20509;-87
2022/12/13 10:50:37;;;;;;;46.78;22.95;;;1.10;99.90;;;;;;5003288;28;20042;-87
2022/12/13 10:53:04;;;;;;;44.55;21.50;;;1.10;99.90;;;;;;5006732;28;20061;-88
2022/12/13 10:55:36;;;;;;;42.33;22.67;;;1.20;99.90;;;;;;5012529;28;20042;-89
2022/12/13 10:58:08;;;;;;;44.05;21.75;;;1.20;99.90;;;;;;4978955;28;20096;-90
2022/12/13 11:00:38;;;;;;;41.22;21.20;;;1.20;99.90;;;;;;4994151;28;20060;-92
2022/12/13 11:03:05;;;;;;;40.42;19.23;;;1.30;99.90;;;;;;4980979;28;20066;-87
2022/12/13 11:05:34;;;;;;;35.85;18.35;;;1.30;99.90;;;;;;4998402;28;20107;-94
2022/12/13 11:08:16;;;;;;;36.35;18.60;;;1.30;99.90;;;;;;5000727;28;20046;-93
2022/12/13 11:10:44;;;;;;;40.10;18.88;;;1.40;99.90;;;;;;5004231;28;20074;-92
2022/12/13 11:13:23;;;;;;;36.92;18.30;;;1.40;99.90;;;;;;5003585;28;20045;-93
2022/12/13 11:15:55;;;;;;;38.15;19.60;;;1.40;99.90;;;;;;4983512;28;20500;-87
2022/12/13 11:18:23;;;;;;;38.92;19.17;;;1.50;99.90;;;;;;5001909;28;20077;-93
2022/12/13 11:20:54;;;;;;;39.78;18.95;;;1.50;99.90;;;;;;4988634;28;20058;-87
2022/12/13 11:23:23;;;;;;;;;;;1.50;99.90;;;;;;4986153;28;20522;-86
2022/12/13 11:25:55;;;;;;;35.13;18.13;;;1.50;99.90;;;;;;5000692;28;20312;-88
2022/12/13 11:28:39;;;;;;;35.55;18.75;;;1.60;99.90;;;;;;4996784;28;20045;-93
2022/12/13 11:31:11;;;;;;;40.67;19.33;;;1.60;99.90;;;;;;5001000;28;20048;-91
2022/12/13 11:33:50;;;;;;;41.25;19.67;;;1.60;99.90;;;;;;4997341;28;20057;-92
2022/12/13 11:36:27;;;;;;;38.15;18.58;;;1.70;99.90;;;;;;5001212;28;20572;-92
2022/12/13 11:39:08;;;;;;;36.72;16.90;;;1.70;99.90;;;;;;5014221;28;20125;-94
2022/12/13 11:41:49;;;;;;;40.25;16.25;;;1.70;99.90;;;;;;4991457;28;20076;-93
2022/12/13 11:44:19;;;;;;;29.60;15.63;;;1.80;99.90;;;;;;5000025;28;20042;-93
2022/12/13 11:46:49;;;;;;;31.85;15.55;;;1.80;99.90;;;;;;4987044;28;20152;-91
2022/12/13 11:49:29;;;;;;;34.83;16.95;;;1.80;99.90;;;;;;4987308;28;20055;-91
2022/12/13 11:52:00;;;;;;;33.47;16.55;;;1.80;99.90;;;;;;5006506;28;20050;-91
2022/12/13 11:54:32;;;;;;;30.40;15.65;;;1.90;99.90;;;;;;5008965;28;20129;-92
2022/12/13 11:57:06;;;;;;;29.63;15.30;;;1.90;99.90;;;;;;5004479;28;20049;-91
2022/12/13 11:59:37;;;;;;;28.95;14.43;;;1.90;99.90;;;;;;4987150;28;20066;-92
2022/12/13 12:02:09;;;;;;;29.08;14.35;;;2.00;99.90;;;;;;5000788;28;20510;-91
2022/12/13 12:04:42;;;;;;;28.98;14.20;;;2.00;99.90;;;;;;5003026;28;20042;-92
2022/12/13 12:07:12;;;;;;;24.75;13.30;;;2.10;99.90;;;;;;4984439;28;20069;-91
2022/12/13 12:09:43;;;;;;;31.60;14.20;;;2.10;99.90;;;;;;5005235;28;20050;-91
2022/12/13 12:12:20;;;;;;;27.20;12.02;;;2.10;99.90;;;;;;4989213;28;20572;-91
2022/12/13 12:14:54;;;;;;;22.13;10.77;;;2.10;99.90;;;;;;5005335;28;20046;-92
2022/12/13 12:17:26;;;;;;;26.48;12.60;;;2.20;99.90;;;;;;4992033;28;20046;-90
2022/12/13 12:19:55;;;;;;;22.65;11.20;;;2.20;99.90;;;;;;4991172;28;20050;-88
2022/12/13 12:22:31;;;;;;;26.50;12.75;;;2.20;99.90;;;;;;4990412;28;20038;-88
2022/12/13 12:25:07;;;;;;;27.83;12.73;;;2.20;99.90;;;;;;5007531;28;20076;-87
2022/12/13 12:27:40;;;;;;;24.33;12.02;;;2.30;99.90;;;;;;5010478;28;20133;-89
2022/12/13 12:30:14;;;;;;;23.63;11.52;;;2.30;99.90;;;;;;4985408;28;20176;-89
2022/12/13 12:32:46;;;;;;;28.65;12.52;;;2.30;99.90;;;;;;4996560;28;20161;-88
2022/12/13 12:35:23;;;;;;;25.10;11.75;;;2.40;99.90;;;;;;5009867;28;20046;-88
2022/12/13 12:37:53;;;;;;;28.20;12.00;;;2.40;99.90;;;;;;4990973;28;20042;-84
2022/12/13 12:40:50;;;;;;;27.27;12.65;;;2.40;99.90;;;;;;4984641;28;20129;-89
2022/12/13 12:43:24;;;;;;;28.13;13.40;;;2.40;99.90;;;;;;5003705;28;20050;-88
2022/12/13 12:46:03;;;;;;;28.40;13.18;;;2.50;99.90;;;;;;5006899;28;20049;-88
2022/12/13 12:49:09;;;;;;;27.92;13.82;;;2.50;99.90;;;;;;4984210;28;20054;-88